Watauga, Tennessee
Current Conditions -  °F | °C
As of 2:55 PM on Friday 24 Oct 2014 (Local Time) from K0A9 Reporting Station
Clear Clear  
Wind Chill: 63°   Ceiling: Unl
Heat Index: 63°   Visibility: 10mi
Dew Point: 39°   Wind: 7mph
Humidity: 42%   Direction: 210°SSW
Pressure: 30.04"   Gusts: NA
Location:  36.37°N, 82.3°W
Report Text: K0A9 241855Z AUTO 21006KT 10SM CLR 17/04 A3004 RMK
Loading
Personal Weather Stations






























Interactive Weather Map
Tropical Storm Tracking
New forecast layout! Learn more

10-Day Weather Forecast

Advertisements
Track Severe Weather on mobile